Time;durP1;ratioP1;P1;durP2;ratioP2;P2;SDS_P1;SDS_P2;PMS_P1;PMS_P2;Temp;Humidity;BMP_temperature;BMP_pressure;BME280_temperature;BME280_humidity;BME280_pressure;Samples;Min_cycle;Max_cycle;Signal;HPM_P1;HPM_P2
2022/12/22 03:28:18;;;;;;;2.38;1.10;;;20.00;63.60;;;;;;5012990;27;87366;-83
2022/12/22 03:30:43;;;;;;;1.75;1.10;;;20.00;63.50;;;;;;5012658;27;88250;-83
2022/12/22 03:33:09;;;;;;;1.98;1.13;;;20.00;63.40;;;;;;5013080;27;87934;-85
2022/12/22 03:35:34;;;;;;;1.63;0.90;;;20.00;63.30;;;;;;5013572;27;87287;-85
2022/12/22 03:38:03;;;;;;;1.90;1.15;;;20.00;63.40;;;;;;5012340;28;88739;-84
2022/12/22 03:40:30;;;;;;;2.20;1.02;;;20.00;63.40;;;;;;5009569;27;88070;-85
2022/12/22 03:48:24;;;;;;;1.63;0.90;;;19.90;63.40;;;;;;5009758;27;87363;-84
2022/12/22 03:50:50;;;;;;;1.15;1.05;;;19.90;63.40;;;;;;5009408;27;87987;-85
2022/12/22 03:53:15;;;;;;;1.92;1.10;;;19.90;63.50;;;;;;5009599;27;87004;-85
2022/12/22 03:55:41;;;;;;;1.15;0.98;;;19.90;63.50;;;;;;5010853;28;86985;-84
2022/12/22 03:58:06;;;;;;;1.10;1.00;;;19.90;63.80;;;;;;5009130;27;88689;-85
2022/12/22 04:00:32;;;;;;;1.88;1.05;;;19.90;63.60;;;;;;5009649;27;88052;-84
2022/12/22 04:02:58;;;;;;;1.15;0.93;;;19.90;64.30;;;;;;5009635;27;86919;-86
2022/12/22 04:05:24;;;;;;;0.98;0.88;;;19.90;63.50;;;;;;5008755;27;87472;-86
2022/12/22 04:07:50;;;;;;;1.05;0.77;;;19.90;63.50;;;;;;5008637;28;88810;-85
2022/12/22 04:13:00;;;;;;;1.85;1.00;;;19.90;63.50;;;;;;5008968;27;87453;-86
2022/12/22 04:15:28;;;;;;;2.38;1.20;;;19.90;63.50;;;;;;5009571;27;87443;-85
2022/12/22 04:17:55;;;;;;;1.70;1.10;;;19.90;63.40;;;;;;5008677;27;92500;-84
2022/12/22 04:20:23;;;;;;;2.90;1.02;;;19.90;63.50;;;;;;5008802;27;87312;-84
2022/12/22 04:22:48;;;;;;;1.45;0.85;;;19.90;63.50;;;;;;5009032;28;88050;-85
2022/12/22 04:25:15;;;;;;;1.42;0.82;;;19.90;63.50;;;;;;5009762;27;87851;-85
2022/12/22 04:27:40;;;;;;;1.40;0.75;;;19.90;63.40;;;;;;5008891;27;87675;-85
2022/12/22 04:30:07;;;;;;;1.55;0.95;;;19.80;63.40;;;;;;5009163;27;87709;-83
2022/12/22 04:32:33;;;;;;;1.75;1.15;;;19.80;63.50;;;;;;5009025;27;88154;-85
2022/12/22 04:34:59;;;;;;;1.23;0.68;;;19.80;63.30;;;;;;5008776;28;87995;-86
2022/12/22 04:37:24;;;;;;;1.58;0.95;;;19.80;63.30;;;;;;5009205;27;89031;-84
2022/12/22 04:39:50;;;;;;;1.42;0.95;;;19.80;63.20;;;;;;5008945;27;88460;-84
2022/12/22 04:42:16;;;;;;;1.88;1.00;;;19.80;63.20;;;;;;5008781;27;87911;-84
2022/12/22 04:44:41;;;;;;;1.58;0.90;;;19.80;63.50;;;;;;5008244;27;87464;-85
2022/12/22 04:47:07;;;;;;;1.73;0.90;;;19.80;63.40;;;;;;5009450;28;88989;-84
2022/12/22 04:49:32;;;;;;;1.60;1.10;;;19.80;64.10;;;;;;5007853;27;87872;-85
2022/12/22 04:51:58;;;;;;;1.30;0.93;;;19.80;63.30;;;;;;5008284;27;87340;-85
2022/12/22 04:54:24;;;;;;;1.70;0.82;;;19.80;63.30;;;;;;5008161;27;87147;-84
2022/12/22 04:56:49;;;;;;;1.27;1.00;;;19.80;64.10;;;;;;5007814;27;88777;-85
2022/12/22 04:59:15;;;;;;;1.23;0.90;;;19.80;63.30;;;;;;5008433;27;88862;-84
2022/12/22 05:01:41;;;;;;;1.00;0.80;;;19.80;63.40;;;;;;5010159;28;87699;-85
2022/12/22 05:04:06;;;;;;;1.80;1.08;;;19.80;63.50;;;;;;5007980;27;87646;-85
2022/12/22 05:06:32;;;;;;;1.02;0.70;;;19.80;63.40;;;;;;5008596;27;87608;-83
2022/12/22 05:08:58;;;;;;;0.70;0.70;;;19.80;63.40;;;;;;5008102;27;87655;-85
2022/12/22 05:11:23;;;;;;;1.05;0.93;;;19.80;63.40;;;;;;5007853;27;87385;-84
2022/12/22 05:13:49;;;;;;;1.52;1.08;;;19.70;63.40;;;;;;5009183;28;87536;-85
2022/12/22 05:16:16;;;;;;;1.77;1.00;;;19.70;63.40;;;;;;5008531;27;88410;-86
2022/12/22 05:18:43;;;;;;;1.38;0.95;;;19.70;63.50;;;;;;5007509;27;87676;-85
2022/12/22 05:21:18;;;;;;;1.52;0.80;;;19.70;63.40;;;;;;5008513;28;94361;-84
2022/12/22 05:23:44;;;;;;;2.33;1.00;;;19.70;63.30;;;;;;5007932;27;89186;-85
2022/12/22 05:26:13;;;;;;;1.45;0.80;;;19.70;63.40;;;;;;5008530;27;88131;-84
2022/12/22 05:28:39;;;;;;;1.15;1.05;;;19.70;63.30;;;;;;5008230;28;87821;-86
2022/12/22 05:31:08;;;;;;;1.42;0.85;;;19.70;63.30;;;;;;5007801;27;87922;-85
2022/12/22 05:33:34;;;;;;;1.03;0.80;;;19.70;63.30;;;;;;5006858;27;87862;-84
2022/12/22 05:36:01;;;;;;;1.55;0.90;;;19.70;63.30;;;;;;5008214;27;88242;-85
2022/12/22 05:38:26;;;;;;;1.27;0.70;;;19.70;63.40;;;;;;5008140;27;88300;-85
2022/12/22 05:40:52;;;;;;;1.77;0.95;;;19.70;63.60;;;;;;5009191;28;87567;-84
2022/12/22 05:43:17;;;;;;;1.67;1.00;;;19.70;63.30;;;;;;5007636;27;86976;-84
2022/12/22 05:45:44;;;;;;;1.88;0.98;;;19.70;63.40;;;;;;5007071;27;88614;-86
2022/12/22 05:48:10;;;;;;;1.27;1.00;;;19.70;63.40;;;;;;5007543;27;88695;-84
2022/12/22 05:50:36;;;;;;;1.45;0.90;;;19.70;63.30;;;;;;5007925;27;87522;-84
2022/12/22 05:53:01;;;;;;;1.75;1.08;;;19.70;63.30;;;;;;5007777;28;87697;-84
2022/12/22 05:55:27;;;;;;;1.65;0.90;;;19.70;63.20;;;;;;5007361;27;87736;-84
2022/12/22 05:57:52;;;;;;;1.13;0.80;;;19.70;63.30;;;;;;5007198;27;88067;-84
2022/12/22 06:00:19;;;;;;;2.00;0.98;;;19.70;63.20;;;;;;5007682;27;86966;-84
2022/12/22 06:02:44;;;;;;;1.08;0.85;;;19.70;63.40;;;;;;5005671;27;88225;-85
2022/12/22 06:05:12;;;;;;;1.20;1.00;;;19.70;63.30;;;;;;5007305;27;88858;-84
2022/12/22 06:07:37;;;;;;;1.05;0.85;;;19.60;63.20;;;;;;5008115;28;87783;-85
2022/12/22 06:10:05;;;;;;;1.13;1.00;;;19.60;63.10;;;;;;5007226;27;88007;-83
2022/12/22 06:12:31;;;;;;;0.98;0.68;;;19.70;63.30;;;;;;5007053;27;87367;-85
2022/12/22 06:14:56;;;;;;;1.02;0.90;;;19.60;63.30;;;;;;5007981;27;87620;-86
2022/12/22 06:17:22;;;;;;;1.05;0.70;;;19.60;63.20;;;;;;5007571;27;87581;-85
2022/12/22 06:19:48;;;;;;;1.73;1.00;;;19.70;63.20;;;;;;5008348;28;87007;-87
2022/12/22 06:22:13;;;;;;;2.65;0.70;;;19.80;61.90;;;;;;5007259;27;87544;-84
2022/12/22 06:24:39;;;;;;;2.15;0.93;;;19.80;61.10;;;;;;5007919;27;87543;-85
2022/12/22 06:27:04;;;;;;;1.40;1.00;;;19.80;61.70;;;;;;5007384;27;88026;-86
2022/12/22 06:29:30;;;;;;;2.50;0.80;;;20.00;61.50;;;;;;5007271;27;87248;-84
2022/12/22 06:31:55;;;;;;;1.80;1.13;;;20.10;61.30;;;;;;5007539;28;87774;-85
2022/12/22 06:34:21;;;;;;;0.70;0.70;;;20.10;61.50;;;;;;5008039;27;88975;-85
2022/12/22 06:36:47;;;;;;;1.67;0.70;;;20.20;61.20;;;;;;5006663;27;89147;-84
2022/12/22 06:39:14;;;;;;;1.40;0.90;;;20.40;61.00;;;;;;5007189;27;87582;-85
2022/12/22 06:44:23;;;;;;;3.42;1.10;;;20.50;61.00;;;;;;5007844;27;86954;-85
2022/12/22 06:46:49;;;;;;;2.28;0.90;;;20.60;60.80;;;;;;5007483;28;87892;-84
2022/12/22 06:49:15;;;;;;;1.48;0.90;;;20.60;60.80;;;;;;5007396;27;87252;-85
2022/12/22 06:51:40;;;;;;;2.50;0.98;;;20.60;60.90;;;;;;5006856;27;87784;-85
2022/12/22 06:54:06;;;;;;;1.85;0.90;;;20.50;61.20;;;;;;5006824;27;88774;-84
2022/12/22 06:56:32;;;;;;;1.92;1.20;;;20.50;61.10;;;;;;5006672;27;87198;-85
2022/12/22 06:58:57;;;;;;;2.97;1.10;;;20.40;61.20;;;;;;5006762;28;88409;-85
2022/12/22 07:01:23;;;;;;;2.22;1.20;;;20.40;61.50;;;;;;5006335;27;87016;-84
2022/12/22 07:03:49;;;;;;;1.83;1.13;;;20.40;61.60;;;;;;5006346;27;87635;-84
2022/12/22 07:06:17;;;;;;;1.20;1.02;;;20.40;61.70;;;;;;5006780;27;88337;-85
2022/12/22 07:08:43;;;;;;;1.48;1.00;;;20.40;61.70;;;;;;5006495;27;87631;-84
2022/12/22 07:11:09;;;;;;;1.48;1.08;;;20.30;61.80;;;;;;5007791;28;88412;-85
2022/12/22 07:13:35;;;;;;;2.15;0.80;;;20.40;61.90;;;;;;5007693;28;92435;-85
2022/12/22 07:16:03;;;;;;;1.98;0.93;;;20.30;62.00;;;;;;5010936;27;87383;-84
2022/12/22 07:18:30;;;;;;;1.88;1.17;;;20.30;62.80;;;;;;5009757;27;87151;-85
2022/12/22 07:20:57;;;;;;;2.92;1.10;;;20.30;61.80;;;;;;5009361;27;87545;-84
2022/12/22 07:23:23;;;;;;;15.02;3.47;;;20.40;61.60;;;;;;5008458;27;88710;-88
2022/12/22 07:25:49;;;;;;;18.25;3.92;;;20.40;59.50;;;;;;5010593;28;88730;-83
2022/12/22 07:28:14;;;;;;;19.33;5.07;;;20.40;58.50;;;;;;5010198;27;87674;-86
2022/12/22 07:30:40;;;;;;;14.45;4.38;;;20.40;58.40;;;;;;5008919;27;87698;-84
2022/12/22 07:33:06;;;;;;;7.13;3.13;;;20.30;58.40;;;;;;5008511;27;87247;-87
2022/12/22 07:35:31;;;;;;;10.90;2.65;;;20.30;58.90;;;;;;5009233;27;87842;-84
2022/12/22 07:37:57;;;;;;;3.92;2.25;;;20.40;59.30;;;;;;5017533;28;86852;-85
2022/12/22 07:40:22;;;;;;;6.50;2.30;;;20.40;59.60;;;;;;5008770;27;86839;-83
2022/12/22 07:42:48;;;;;;;5.40;2.25;;;20.30;60.00;;;;;;5008786;27;87308;-84
2022/12/22 07:45:16;;;;;;;8.15;2.00;;;20.30;60.00;;;;;;5008137;27;87336;-85
2022/12/22 07:47:43;;;;;;;8.75;2.55;;;20.20;60.10;;;;;;5008107;27;88339;-85
2022/12/22 07:50:27;;;;;;;10.25;3.20;;;20.30;59.70;;;;;;5011030;28;87432;-84
2022/12/22 07:52:57;;;;;;;11.45;2.60;;;20.40;59.90;;;;;;5010698;28;92641;-85
2022/12/22 07:55:25;;;;;;;9.73;3.20;;;20.30;60.00;;;;;;5009310;27;87435;-84
2022/12/22 07:57:52;;;;;;;5.53;2.45;;;20.30;59.90;;;;;;5009468;27;87038;-85
2022/12/22 08:00:18;;;;;;;8.27;2.50;;;20.20;60.20;;;;;;5007074;27;87919;-83
2022/12/22 08:02:52;;;;;;;6.22;2.38;;;20.30;60.40;;;;;;5007949;27;88963;-85
2022/12/22 08:05:18;;;;;;;9.50;2.78;;;20.30;60.60;;;;;;5008162;27;87224;-85
2022/12/22 08:07:44;;;;;;;11.50;2.88;;;20.40;60.30;;;;;;5008578;28;88226;-85
2022/12/22 08:10:11;;;;;;;5.47;2.45;;;20.50;60.40;;;;;;5006392;27;90782;-84
2022/12/22 08:12:37;;;;;;;7.18;2.45;;;20.40;60.30;;;;;;5007010;27;89048;-85
2022/12/22 08:15:04;;;;;;;5.97;2.03;;;20.50;60.40;;;;;;5006891;27;88902;-87
2022/12/22 08:17:29;;;;;;;8.10;2.40;;;20.50;61.40;;;;;;5008242;27;87481;-85
2022/12/22 08:19:55;;;;;;;8.13;2.40;;;20.40;61.00;;;;;;5008700;28;87694;-84
2022/12/22 08:22:22;;;;;;;9.60;2.78;;;20.30;61.60;;;;;;5008352;27;88353;-83
2022/12/22 08:24:49;;;;;;;8.02;2.75;;;20.20;62.40;;;;;;5008440;27;88363;-81
2022/12/22 08:27:17;;;;;;;9.25;2.50;;;20.30;63.10;;;;;;5008730;27;87228;-81
2022/12/22 08:29:50;;;;;;;5.90;2.33;;;20.30;62.80;;;;;;5008368;27;86803;-84
2022/12/22 08:32:16;;;;;;;7.35;2.28;;;20.30;62.70;;;;;;5007732;27;88223;-85
2022/12/22 08:34:42;;;;;;;8.18;2.70;;;20.30;63.00;;;;;;5008284;28;88440;-85
2022/12/22 08:37:12;;;;;;;7.68;2.40;;;20.30;63.20;;;;;;5007964;27;88020;-83
2022/12/22 08:39:39;;;;;;;5.70;2.33;;;20.30;62.80;;;;;;4985378;27;87418;-81
2022/12/22 08:42:06;;;;;;;6.35;2.30;;;20.30;63.40;;;;;;5007976;27;88646;-84
2022/12/22 08:44:32;;;;;;;10.55;2.67;;;20.30;63.50;;;;;;5008766;27;88169;-84
2022/12/22 08:46:58;;;;;;;8.95;2.53;;;20.30;63.80;;;;;;5009113;28;87740;-84
2022/12/22 08:49:25;;;;;;;5.10;2.33;;;20.30;63.50;;;;;;5007989;27;87426;-83
2022/12/22 08:51:51;;;;;;;8.98;3.38;;;20.30;63.60;;;;;;5007028;27;88486;-83
2022/12/22 08:54:18;;;;;;;7.43;2.65;;;20.30;63.90;;;;;;5007974;27;88057;-81
2022/12/22 08:56:44;;;;;;;5.88;2.85;;;20.40;63.70;;;;;;5007317;27;86911;-83
2022/12/22 08:59:10;;;;;;;7.28;3.13;;;20.50;63.70;;;;;;5008213;28;87104;-82
2022/12/22 09:01:38;;;;;;;9.75;3.95;;;20.60;64.00;;;;;;5007160;28;93859;-82
2022/12/22 09:04:05;;;;;;;11.05;3.60;;;20.50;63.80;;;;;;5004955;27;90518;-84
2022/12/22 09:06:31;;;;;;;10.00;4.43;;;20.50;64.80;;;;;;5007629;27;87657;-82
2022/12/22 09:08:59;;;;;;;11.70;3.17;;;20.50;65.40;;;;;;5007375;27;87508;-81
2022/12/22 09:11:26;;;;;;;13.88;5.63;;;20.50;66.00;;;;;;5009235;27;88276;-82
2022/12/22 09:13:54;;;;;;;12.32;7.45;;;20.50;66.00;;;;;;5008211;28;87740;-82
2022/12/22 09:16:21;;;;;;;17.00;6.95;;;20.50;68.20;;;;;;5007950;27;87220;-83
2022/12/22 09:18:47;;;;;;;10.68;5.88;;;20.40;69.40;;;;;;5006790;27;87150;-82
2022/12/22 09:21:13;;;;;;;9.35;5.32;;;20.40;69.00;;;;;;5005684;27;88639;-82
2022/12/22 09:23:38;;;;;;;12.07;5.20;;;20.60;67.70;;;;;;5006136;27;87182;-84
2022/12/22 09:26:09;;;;;;;11.85;4.78;;;20.50;67.60;;;;;;5006614;28;88278;-80
2022/12/22 09:28:36;;;;;;;7.68;5.03;;;20.60;65.80;;;;;;5005508;28;91501;-82
2022/12/22 09:31:02;;;;;;;17.50;6.47;;;20.50;65.90;;;;;;5006000;27;90585;-82
2022/12/22 09:33:28;;;;;;;10.20;5.30;;;20.60;65.90;;;;;;5005316;27;88067;-83
2022/12/22 09:35:54;;;;;;;13.48;4.65;;;20.60;66.00;;;;;;5005300;27;88108;-83
2022/12/22 09:38:20;;;;;;;9.35;5.28;;;20.50;66.10;;;;;;5005862;27;88670;-84
2022/12/22 09:40:46;;;;;;;8.82;5.70;;;20.60;65.60;;;;;;5006165;28;89190;-84
2022/12/22 09:43:16;;;;;;;8.77;5.00;;;20.60;65.30;;;;;;5008572;27;87895;-82
2022/12/22 09:45:43;;;;;;;8.52;4.32;;;20.60;65.60;;;;;;4995731;28;87310;-84
2022/12/22 09:48:12;;;;;;;8.45;4.65;;;20.60;66.10;;;;;;5006926;27;87045;-84
2022/12/22 09:50:39;;;;;;;8.43;5.28;;;20.70;66.00;;;;;;5005765;27;88764;-84
2022/12/22 09:53:09;;;;;;;13.55;7.22;;;20.70;65.60;;;;;;5007471;28;88271;-85
2022/12/22 09:55:46;;;;;;;14.27;8.90;;;20.60;66.00;;;;;;5006581;28;87269;-85
2022/12/22 09:58:30;;;;;;;12.73;7.43;;;20.50;64.60;;;;;;5007020;27;87632;-83
2022/12/22 10:01:21;;;;;;;13.30;6.30;;;20.50;65.30;;;;;;5006688;27;88240;-83
2022/12/22 10:03:54;;;;;;;9.65;6.45;;;20.60;65.40;;;;;;4963119;28;87623;-84
2022/12/22 10:06:31;;;;;;;9.20;5.40;;;20.50;65.30;;;;;;4964128;28;87835;-84
2022/12/22 10:09:03;;;;;;;10.35;5.80;;;20.60;65.40;;;;;;4962363;28;86460;-84
2022/12/22 10:11:29;;;;;;;12.43;7.18;;;20.70;64.70;;;;;;4961781;28;87738;-85
2022/12/22 10:13:54;;;;;;;17.02;7.60;;;20.70;64.10;;;;;;4964265;28;88157;-86
2022/12/22 10:16:23;;;;;;;13.52;5.78;;;20.60;65.10;;;;;;4962673;28;89204;-83
2022/12/22 10:19:06;;;;;;;13.25;6.97;;;20.60;65.50;;;;;;4963170;28;87167;-85
2022/12/22 10:21:32;;;;;;;14.50;6.75;;;20.50;65.30;;;;;;4962524;28;88435;-84
2022/12/22 10:23:57;;;;;;;15.50;6.72;;;20.60;65.00;;;;;;4962159;28;91727;-84
2022/12/22 10:26:32;;;;;;;13.15;6.18;;;20.60;65.00;;;;;;4963608;28;87478;-83
2022/12/22 10:29:16;;;;;;;9.38;6.38;;;20.70;64.50;;;;;;4963881;28;87484;-83
2022/12/22 10:32:10;;;;;;;12.20;6.97;;;20.70;64.20;;;;;;4962568;28;91917;-85
2022/12/22 10:34:35;;;;;;;16.92;8.55;;;20.70;64.20;;;;;;4963679;28;92129;-82
2022/12/22 10:37:03;;;;;;;14.25;7.90;;;20.80;64.10;;;;;;4963248;28;87371;-86
2022/12/22 10:39:35;;;;;;;16.75;8.20;;;20.90;65.90;;;;;;4963211;28;88149;-82
2022/12/22 10:42:13;;;;;;;14.93;7.97;;;20.80;64.00;;;;;;5005171;28;90625;-85
2022/12/22 10:44:46;;;;;;;20.02;8.77;;;20.80;63.70;;;;;;5003588;27;91414;-84
2022/12/22 10:47:18;;;;;;;13.95;8.25;;;20.90;63.50;;;;;;5006612;27;87174;-84
2022/12/22 10:49:46;;;;;;;18.02;8.32;;;20.90;63.10;;;;;;5008980;28;87543;-84
2022/12/22 10:52:24;;;;;;;19.07;8.27;;;20.80;62.60;;;;;;5009515;27;87957;-84
2022/12/22 10:54:50;;;;;;;15.05;7.65;;;20.80;62.60;;;;;;5008883;27;88104;-84
2022/12/22 10:57:16;;;;;;;13.23;7.15;;;20.70;62.80;;;;;;5010280;27;87439;-84
2022/12/22 11:00:27;;;;;;;12.98;8.13;;;20.70;63.40;;;;;;5010042;27;87564;-85
2022/12/22 11:02:55;;;;;;;13.82;7.32;;;20.80;63.50;;;;;;4967096;28;87503;-82
2022/12/22 11:05:20;;;;;;;17.98;8.18;;;20.80;63.30;;;;;;4967076;28;87709;-82
2022/12/22 11:07:46;;;;;;;15.35;7.57;;;21.00;63.30;;;;;;4966859;28;88075;-82
2022/12/22 11:10:16;;;;;;;15.30;6.53;;;21.10;63.20;;;;;;4967374;28;87295;-84
2022/12/22 11:13:11;;;;;;;11.38;6.35;;;21.20;63.10;;;;;;4966671;28;88705;-86
2022/12/22 11:16:03;;;;;;;12.85;7.05;;;21.30;62.80;;;;;;4966923;28;87724;-83
2022/12/22 11:19:09;;;;;;;14.80;6.97;;;21.30;62.40;;;;;;4967172;28;87707;-83
2022/12/22 11:21:56;;;;;;;10.93;6.82;;;21.40;62.40;;;;;;4908643;28;87842;-86
2022/12/22 11:24:34;;;;;;;10.38;6.35;;;21.50;62.10;;;;;;4909305;28;87854;-84
2022/12/22 11:27:13;;;;;;;11.00;7.18;;;21.50;61.60;;;;;;4908413;28;88632;-84
2022/12/22 11:29:44;;;;;;;12.40;6.53;;;21.50;60.60;;;;;;4908015;28;88110;-82
2022/12/22 11:32:31;;;;;;;14.02;6.32;;;21.50;60.50;;;;;;4906881;28;87569;-81
2022/12/22 11:35:24;;;;;;;11.63;6.22;;;21.50;61.30;;;;;;4906685;28;89223;-81
2022/12/22 11:37:55;;;;;;;14.43;6.00;;;21.50;61.40;;;;;;4906218;28;93539;-82
2022/12/22 11:40:36;;;;;;;16.65;6.10;;;21.40;61.40;;;;;;4939433;28;87373;-82
2022/12/22 11:43:25;;;;;;;11.60;6.13;;;21.50;61.10;;;;;;4944933;28;87078;-82
2022/12/22 11:46:10;;;;;;;23.23;6.68;;;21.40;61.10;;;;;;4944269;28;88440;-80
2022/12/22 11:48:57;;;;;;;16.00;6.45;;;21.40;61.00;;;;;;4944789;28;87190;-82
2022/12/22 11:51:52;;;;;;;14.93;5.88;;;21.50;61.20;;;;;;4944991;28;87757;-80
2022/12/22 11:54:41;;;;;;;12.48;5.65;;;21.50;61.20;;;;;;4945362;28;87388;-82
2022/12/22 11:57:07;;;;;;;;;;;21.50;60.20;;;;;;4949019;28;91837;-82
2022/12/22 12:00:04;;;;;;;11.90;5.80;;;21.60;61.50;;;;;;5007060;27;87332;-80
2022/12/22 12:03:00;;;;;;;16.73;6.35;;;21.50;61.00;;;;;;4993520;28;88039;-82
2022/12/22 12:05:39;;;;;;;12.43;5.82;;;21.50;61.30;;;;;;4993264;28;87067;-81
2022/12/22 12:08:35;;;;;;;11.02;5.93;;;21.40;62.20;;;;;;4996668;28;91819;-84
2022/12/22 12:11:19;;;;;;;11.90;5.65;;;21.40;61.60;;;;;;4994809;28;92649;-83
2022/12/22 12:14:09;;;;;;;9.60;5.75;;;21.40;60.50;;;;;;4996575;28;87443;-83
2022/12/22 12:16:56;;;;;;;14.73;5.85;;;21.40;61.30;;;;;;4995971;28;91765;-82
2022/12/22 12:19:21;;;;;;;8.18;5.28;;;21.30;61.60;;;;;;4996395;28;87436;-84
2022/12/22 12:21:52;;;;;;;10.10;5.28;;;21.40;61.80;;;;;;4994401;28;88126;-83
2022/12/22 12:24:18;;;;;;;11.68;5.53;;;21.50;61.80;;;;;;4995911;28;87293;-86
2022/12/22 12:26:57;;;;;;;10.73;5.40;;;21.60;61.70;;;;;;4997332;28;87573;-84
2022/12/22 12:29:24;;;;;;;10.00;4.97;;;21.50;61.60;;;;;;4987311;28;91657;-85
2022/12/22 12:31:54;;;;;;;11.05;4.93;;;21.60;61.70;;;;;;4997462;28;89370;-83
2022/12/22 12:34:20;;;;;;;;;;;21.70;61.50;;;;;;4997653;28;87539;-83
2022/12/22 12:37:04;;;;;;;11.68;5.22;;;21.60;61.40;;;;;;4993661;28;87554;-83
2022/12/22 12:39:35;;;;;;;20.45;5.95;;;21.60;61.30;;;;;;5000402;28;88303;-84
2022/12/22 12:42:16;;;;;;;18.25;6.72;;;21.60;61.10;;;;;;5007678;27;87939;-83
2022/12/22 12:44:42;;;;;;;21.05;7.47;;;21.60;60.40;;;;;;5008063;27;87339;-83
2022/12/22 12:47:25;;;;;;;21.17;7.07;;;21.60;60.70;;;;;;5008760;28;86421;-83
2022/12/22 12:49:55;;;;;;;24.73;7.55;;;21.50;59.80;;;;;;4987379;28;93582;-84
2022/12/22 12:52:39;;;;;;;18.50;7.25;;;21.50;60.30;;;;;;5004620;28;87539;-84
2022/12/22 12:55:23;;;;;;;14.80;6.97;;;21.50;61.70;;;;;;5006917;27;92783;-84
2022/12/22 12:57:49;;;;;;;15.32;6.47;;;21.50;62.00;;;;;;5005285;28;89924;-84
2022/12/22 13:00:33;;;;;;;19.40;6.60;;;21.40;62.30;;;;;;5007689;27;87875;-84
2022/12/22 13:03:09;;;;;;;20.73;6.88;;;21.50;62.00;;;;;;5007595;27;87933;-83
2022/12/22 13:05:51;;;;;;;20.88;7.15;;;21.50;62.40;;;;;;5008434;27;87451;-83
2022/12/22 13:08:16;;;;;;;13.93;6.22;;;21.30;62.60;;;;;;5007748;27;87387;-84
2022/12/22 13:10:47;;;;;;;31.05;6.65;;;21.30;62.90;;;;;;5006402;28;87901;-84
2022/12/22 13:13:24;;;;;;;17.98;6.97;;;21.30;62.50;;;;;;5006440;27;89000;-83
2022/12/22 13:15:59;;;;;;;13.50;5.88;;;21.30;62.50;;;;;;5007217;27;88646;-83
2022/12/22 13:18:24;;;;;;;15.25;6.25;;;21.30;62.70;;;;;;5006186;27;87093;-82
2022/12/22 13:21:05;;;;;;;14.70;5.53;;;21.20;62.80;;;;;;5005200;27;88516;-82
2022/12/22 13:23:35;;;;;;;14.73;6.32;;;21.20;62.90;;;;;;5005544;27;89020;-83
2022/12/22 13:26:45;;;;;;;19.83;6.35;;;21.20;63.20;;;;;;5005588;28;87337;-83
2022/12/22 13:29:29;;;;;;;14.63;6.68;;;21.20;63.30;;;;;;4934967;28;91336;-83
2022/12/22 13:32:14;;;;;;;13.40;6.32;;;21.10;63.40;;;;;;4937658;28;91736;-83
2022/12/22 13:35:14;;;;;;;13.95;5.05;;;21.10;63.70;;;;;;4924648;28;92056;-82
2022/12/22 13:37:43;;;;;;;10.88;5.53;;;21.10;63.80;;;;;;4955545;28;87552;-84
2022/12/22 13:40:25;;;;;;;11.77;6.18;;;21.10;63.90;;;;;;4954071;28;87475;-82
2022/12/22 13:43:00;;;;;;;18.25;7.43;;;21.10;64.20;;;;;;4953286;28;88501;-80
2022/12/22 13:45:40;;;;;;;13.73;6.07;;;21.10;65.70;;;;;;4958549;28;87771;-81
2022/12/22 13:48:14;;;;;;;17.85;7.32;;;21.10;69.60;;;;;;4949317;28;88643;-82
2022/12/22 13:50:55;;;;;;;12.27;6.05;;;21.20;66.60;;;;;;4954929;28;87327;-84
2022/12/22 13:53:42;;;;;;;7.82;3.10;;;21.10;65.60;;;;;;4950333;28;89110;-81
2022/12/22 13:56:15;;;;;;;9.00;4.03;;;21.10;61.00;;;;;;4953198;28;87079;-82
2022/12/22 13:58:45;;;;;;;16.42;5.72;;;21.10;62.10;;;;;;4960891;28;87812;-90
2022/12/22 14:01:16;;;;;;;16.20;5.10;;;21.10;64.00;;;;;;4953219;28;88353;-82
2022/12/22 14:04:06;;;;;;;10.85;4.82;;;21.10;63.70;;;;;;4955041;28;88818;-83
2022/12/22 14:06:37;;;;;;;13.65;4.90;;;21.00;62.60;;;;;;5007922;27;87923;-83
2022/12/22 14:09:13;;;;;;;9.50;3.08;;;21.00;62.60;;;;;;5005797;27;86902;-83
2022/12/22 14:11:39;;;;;;;7.63;3.53;;;21.20;60.50;;;;;;5004970;27;88083;-85
2022/12/22 14:14:14;;;;;;;9.45;4.50;;;21.30;59.80;;;;;;5005431;28;89534;-87
2022/12/22 14:16:48;;;;;;;14.57;4.82;;;21.20;61.80;;;;;;5005994;28;93630;-89
2022/12/22 14:19:17;;;;;;;14.80;5.13;;;21.10;62.60;;;;;;5005711;27;87153;-89
2022/12/22 14:21:48;;;;;;;16.38;5.00;;;21.20;62.90;;;;;;5018687;27;87652;-90
2022/12/22 14:24:24;;;;;;;13.27;5.28;;;21.10;62.90;;;;;;5005965;28;87228;-89
2022/12/22 14:26:52;;;;;;;15.55;5.43;;;21.00;63.30;;;;;;5003597;27;87450;-88
2022/12/22 14:29:24;;;;;;;14.05;5.28;;;21.10;63.10;;;;;;5003713;27;87595;-88
2022/12/22 14:31:58;;;;;;;11.10;4.78;;;21.20;63.00;;;;;;5003376;28;86532;-88
2022/12/22 14:34:29;;;;;;;28.25;5.00;;;21.00;62.80;;;;;;5004001;27;88498;-85
2022/12/22 14:36:58;;;;;;;15.20;5.20;;;21.10;62.50;;;;;;5003565;27;87771;-88
2022/12/22 14:39:25;;;;;;;;;;;21.10;62.70;;;;;;5004709;27;89535;-87
2022/12/22 14:41:54;;;;;;;12.95;4.65;;;21.00;63.10;;;;;;5005665;27;87308;-86
2022/12/22 14:44:24;;;;;;;15.20;5.37;;;20.90;63.20;;;;;;5003569;27;88049;-89
2022/12/22 14:47:10;;;;;;;8.35;4.82;;;20.80;63.30;;;;;;5003954;28;88479;-88
2022/12/22 14:49:49;;;;;;;9.85;4.60;;;20.80;63.40;;;;;;5004377;28;87719;-84
2022/12/22 14:52:21;;;;;;;7.50;4.50;;;20.80;63.50;;;;;;5003328;27;88236;-89
2022/12/22 14:54:52;;;;;;;6.32;4.05;;;20.80;63.80;;;;;;5004341;27;87507;-88
2022/12/22 14:57:37;;;;;;;12.35;5.05;;;20.90;63.60;;;;;;5004262;27;87465;-88
2022/12/22 15:00:06;;;;;;;12.60;4.55;;;20.90;63.40;;;;;;5003844;27;87180;-88
2022/12/22 15:02:37;;;;;;;11.98;4.85;;;21.00;63.20;;;;;;5003918;27;87613;-89
2022/12/22 15:05:08;;;;;;;11.88;4.90;;;21.10;63.00;;;;;;5004057;28;89368;-86
2022/12/22 15:07:51;;;;;;;9.07;4.60;;;21.10;62.40;;;;;;5004655;27;89750;-89
2022/12/22 15:10:17;;;;;;;11.60;4.50;;;21.20;61.90;;;;;;5004185;27;86939;-86
2022/12/22 15:12:44;;;;;;;9.15;4.18;;;21.30;60.80;;;;;;5005577;27;87324;-83
2022/12/22 15:15:18;;;;;;;9.52;3.83;;;21.40;60.60;;;;;;5003734;27;91049;-84
2022/12/22 15:17:47;;;;;;;9.48;3.55;;;21.50;59.60;;;;;;5003640;27;87949;-84
2022/12/22 15:20:21;;;;;;;10.07;4.95;;;21.50;59.20;;;;;;4990345;27;87379;-82
2022/12/22 15:22:47;;;;;;;7.97;4.63;;;21.50;59.10;;;;;;5005102;28;86781;-82
2022/12/22 15:25:15;;;;;;;10.77;4.82;;;21.60;58.80;;;;;;5004171;27;89144;-83
2022/12/22 15:27:41;;;;;;;10.93;4.80;;;21.60;58.70;;;;;;5003933;27;88290;-83
2022/12/22 15:30:07;;;;;;;11.82;4.28;;;21.60;58.90;;;;;;5003887;27;88351;-84
2022/12/22 15:32:33;;;;;;;7.75;4.10;;;21.60;58.90;;;;;;5004032;27;87660;-84
2022/12/22 15:35:02;;;;;;;7.78;4.03;;;21.60;59.00;;;;;;5006923;28;87624;-84
2022/12/22 15:37:28;;;;;;;9.55;4.28;;;21.60;59.30;;;;;;5007006;27;87743;-84
2022/12/22 15:39:53;;;;;;;8.93;4.30;;;21.60;59.70;;;;;;5007663;27;87364;-84
2022/12/22 15:42:19;;;;;;;9.10;4.25;;;21.60;59.90;;;;;;5005935;27;87319;-84
2022/12/22 15:44:44;;;;;;;7.15;3.97;;;21.60;60.40;;;;;;5005111;27;88580;-84
2022/12/22 15:47:10;;;;;;;8.75;4.57;;;21.60;60.20;;;;;;5006757;27;88203;-83
2022/12/22 15:49:36;;;;;;;7.97;3.97;;;21.70;60.30;;;;;;5006723;28;87354;-83
2022/12/22 15:52:03;;;;;;;10.70;4.35;;;21.60;60.30;;;;;;5006149;27;87441;-85
2022/12/22 15:54:31;;;;;;;8.02;4.10;;;21.60;60.30;;;;;;5004897;27;89070;-84
2022/12/22 15:56:57;;;;;;;8.67;3.63;;;21.60;60.50;;;;;;5007250;27;88810;-84
2022/12/22 15:59:25;;;;;;;6.82;3.53;;;21.50;59.20;;;;;;5008465;27;87360;-84
2022/12/22 16:01:52;;;;;;;7.85;4.05;;;21.40;59.80;;;;;;5007971;28;87447;-83
2022/12/22 16:04:18;;;;;;;8.75;4.03;;;21.50;59.80;;;;;;5006969;27;87980;-83
2022/12/22 16:06:44;;;;;;;6.88;3.80;;;21.50;60.40;;;;;;5006618;27;87667;-84
2022/12/22 16:09:20;;;;;;;9.60;3.95;;;21.60;60.20;;;;;;5007711;27;87132;-84
2022/12/22 16:11:47;;;;;;;9.48;3.47;;;21.70;60.40;;;;;;5008006;27;86674;-86
2022/12/22 16:14:15;;;;;;;9.90;3.90;;;21.70;61.10;;;;;;5005256;27;90464;-87
2022/12/22 16:16:41;;;;;;;9.55;4.10;;;21.70;61.10;;;;;;5007664;28;87573;-88
2022/12/22 16:19:15;;;;;;;8.27;3.80;;;21.70;61.40;;;;;;5006417;27;88326;-88
2022/12/22 16:21:43;;;;;;;10.73;3.83;;;21.70;61.50;;;;;;5006284;27;90288;-88
2022/12/22 16:24:24;;;;;;;9.68;3.63;;;21.60;61.80;;;;;;5005782;27;88167;-87
2022/12/22 16:26:49;;;;;;;8.40;3.42;;;21.70;61.70;;;;;;5006377;27;87613;-87
2022/12/22 16:29:16;;;;;;;12.98;4.18;;;21.70;61.80;;;;;;5006321;27;87388;-87
2022/12/22 16:31:41;;;;;;;6.18;3.25;;;21.60;62.00;;;;;;5006303;28;87802;-88
2022/12/22 16:34:10;;;;;;;15.75;4.70;;;21.50;62.20;;;;;;5006802;27;87899;-88
2022/12/22 16:36:36;;;;;;;10.05;3.63;;;21.60;62.40;;;;;;5006203;27;87795;-88
2022/12/22 16:39:01;;;;;;;8.30;3.67;;;21.60;62.40;;;;;;5005043;27;87493;-88